createdAt,value
2023-04-08T00:00:25.647Z,8.16
2023-04-08T00:03:29.921Z,9.33
2023-04-08T00:06:34.435Z,8.70
2023-04-08T00:09:39.517Z,8.22
2023-04-08T00:12:44.204Z,9.19
2023-04-08T00:15:48.559Z,9.36
2023-04-08T00:18:53.054Z,9.30
2023-04-08T00:21:57.736Z,10.11
2023-04-08T00:25:02.783Z,10.27
2023-04-08T00:28:07.228Z,9.70
2023-04-08T00:31:12.475Z,9.68
2023-04-08T00:34:17.302Z,9.75
2023-04-08T00:37:22.015Z,10.00
2023-04-08T00:40:25.985Z,9.64
2023-04-08T00:43:30.667Z,9.97
2023-04-08T00:46:39.858Z,10.30
2023-04-08T00:49:45.378Z,9.45
2023-04-08T00:53:00.781Z,8.58
2023-04-08T00:56:05.691Z,11.02
2023-04-08T00:59:10.375Z,10.83
2023-04-08T01:02:33.344Z,10.79
2023-04-08T01:05:51.317Z,11.48
2023-04-08T01:08:56.072Z,10.58
2023-04-08T01:12:05.311Z,11.26
2023-04-08T01:15:12.481Z,11.49
2023-04-08T01:18:18.202Z,12.07
2023-04-08T01:21:23.091Z,12.08
2023-04-08T01:24:35.174Z,10.98
2023-04-08T01:27:39.958Z,10.76
2023-04-08T01:30:46.466Z,11.39
2023-04-08T01:33:52.665Z,11.35
2023-04-08T01:37:00.734Z,11.54
2023-04-08T01:40:06.196Z,11.23
2023-04-08T01:43:12.838Z,12.18
2023-04-08T01:46:17.165Z,11.53
2023-04-08T01:49:23.668Z,10.42
2023-04-08T01:52:29.908Z,11.08
2023-04-08T01:55:34.796Z,12.10
2023-04-08T01:58:43.328Z,11.51
2023-04-08T02:01:48.666Z,12.05
2023-04-08T02:04:52.798Z,12.53
2023-04-08T02:07:57.039Z,10.88
2023-04-08T02:11:01.696Z,11.15
2023-04-08T02:14:06.729Z,10.94
2023-04-08T02:17:15.212Z,10.35
2023-04-08T02:20:20.297Z,11.01
2023-04-08T02:23:26.592Z,10.51
2023-04-08T02:26:39.184Z,10.67
2023-04-08T02:29:44.236Z,10.93
2023-04-08T02:32:49.105Z,10.34
2023-04-08T02:35:56.177Z,10.07
2023-04-08T02:39:01.060Z,10.29
2023-04-08T02:42:06.958Z,11.55
2023-04-08T02:45:11.431Z,11.18
2023-04-08T02:48:15.878Z,10.40
2023-04-08T02:51:19.921Z,10.74
2023-04-08T02:54:23.833Z,10.42
2023-04-08T02:57:28.317Z,10.71
2023-04-08T03:00:33.083Z,10.63
2023-04-08T03:03:37.401Z,10.31
2023-04-08T03:06:41.446Z,10.55
2023-04-08T03:09:45.731Z,10.20
2023-04-08T03:12:49.871Z,10.24
2023-04-08T03:15:54.443Z,9.50
2023-04-08T03:18:58.951Z,8.51
2023-04-08T03:22:03.443Z,8.88
2023-04-08T03:25:07.978Z,9.76
2023-04-08T03:28:14.300Z,9.41
2023-04-08T03:31:18.354Z,9.31
2023-04-08T03:34:22.992Z,9.29
2023-04-08T03:37:27.803Z,9.39
2023-04-08T03:40:34.597Z,9.54
2023-04-08T03:43:38.950Z,9.97
2023-04-08T03:46:43.131Z,9.43
2023-04-08T03:49:47.748Z,8.77
2023-04-08T03:52:52.305Z,9.14
2023-04-08T03:55:58.535Z,9.54
2023-04-08T03:59:02.727Z,8.78
2023-04-08T04:02:07.269Z,8.54
2023-04-08T04:05:11.738Z,8.35
2023-04-08T04:08:16.682Z,8.76
2023-04-08T04:11:22.391Z,8.65
2023-04-08T04:14:26.697Z,8.34
2023-04-08T04:17:31.441Z,7.90
2023-04-08T04:20:36.455Z,8.35
2023-04-08T04:23:41.022Z,8.35
2023-04-08T04:26:45.043Z,8.33
2023-04-08T04:29:49.546Z,8.38
2023-04-08T04:32:53.447Z,7.13
2023-04-08T04:35:58.052Z,8.45
2023-04-08T04:39:02.854Z,8.26
2023-04-08T04:42:07.521Z,8.26
2023-04-08T04:45:12.412Z,8.19
2023-04-08T04:48:16.434Z,8.83
2023-04-08T04:51:22.029Z,8.49
2023-04-08T04:54:26.856Z,8.53
2023-04-08T04:57:31.476Z,8.40
2023-04-08T05:00:37.220Z,8.66
2023-04-08T05:03:42.151Z,8.82
2023-04-08T05:06:46.964Z,8.94
2023-04-08T05:09:51.533Z,8.47
2023-04-08T05:12:55.588Z,8.80
2023-04-08T05:15:59.877Z,8.62
2023-04-08T05:19:03.887Z,8.15
2023-04-08T05:22:08.318Z,7.60
2023-04-08T05:25:12.937Z,7.90
2023-04-08T05:28:17.224Z,8.31
2023-04-08T05:31:22.394Z,8.32
2023-04-08T05:34:26.628Z,8.53
2023-04-08T05:37:31.479Z,8.96
2023-04-08T05:40:36.211Z,9.08
2023-04-08T05:43:40.923Z,8.80
2023-04-08T05:46:48.412Z,8.39
2023-04-08T05:49:52.446Z,8.08
2023-04-08T05:52:56.747Z,8.54
2023-04-08T05:56:01.181Z,8.69
2023-04-08T05:59:05.890Z,8.51
2023-04-08T06:02:12.449Z,8.85
2023-04-08T06:05:17.287Z,8.58
2023-04-08T06:08:22.012Z,8.36
2023-04-08T06:11:26.736Z,8.67
2023-04-08T06:14:31.340Z,8.42
2023-04-08T06:17:38.431Z,8.27
2023-04-08T06:20:42.537Z,8.68
2023-04-08T06:23:46.747Z,8.88
2023-04-08T06:26:51.175Z,8.63
2023-04-08T06:29:56.189Z,8.53
2023-04-08T06:33:00.740Z,8.66
2023-04-08T06:36:06.772Z,8.82
2023-04-08T06:39:11.500Z,9.04
2023-04-08T06:42:15.584Z,8.82
2023-04-08T06:45:38.412Z,9.02
2023-04-08T06:48:42.980Z,8.94
2023-04-08T06:51:47.456Z,8.51
2023-04-08T06:54:51.725Z,8.26
2023-04-08T06:57:55.872Z,8.21
2023-04-08T07:01:02.317Z,8.31
2023-04-08T07:04:06.714Z,8.38
2023-04-08T07:07:10.525Z,8.09
2023-04-08T07:10:15.124Z,7.81
2023-04-08T07:13:19.751Z,7.75
2023-04-08T07:16:24.399Z,8.05
2023-04-08T07:19:29.220Z,8.24
2023-04-08T07:22:33.770Z,8.19
2023-04-08T07:25:37.886Z,8.37
2023-04-08T07:28:42.059Z,8.35
2023-04-08T07:31:46.367Z,8.26
2023-04-08T07:34:51.289Z,8.39
2023-04-08T07:37:55.948Z,8.19
2023-04-08T07:40:59.924Z,7.87
2023-04-08T07:44:04.238Z,7.66
2023-04-08T07:47:08.276Z,7.81
2023-04-08T07:50:12.881Z,7.89
2023-04-08T07:53:17.980Z,7.88
2023-04-08T07:56:23.302Z,7.78
2023-04-08T07:59:27.411Z,7.66
2023-04-08T08:02:32.120Z,7.61
2023-04-08T08:05:40.127Z,7.77
2023-04-08T08:08:45.070Z,7.71
2023-04-08T08:11:49.491Z,7.68
2023-04-08T08:14:55.701Z,7.31
2023-04-08T08:18:00.242Z,6.86
2023-04-08T08:21:05.136Z,6.75
2023-04-08T08:24:09.698Z,6.94
2023-04-08T08:27:13.994Z,6.83
2023-04-08T08:30:18.199Z,6.72
2023-04-08T08:33:22.534Z,6.69
2023-04-08T08:36:30.755Z,6.50
2023-04-08T08:39:36.275Z,6.32
2023-04-08T08:42:41.244Z,6.41
2023-04-08T08:45:45.530Z,6.29
2023-04-08T08:48:50.872Z,6.12
2023-04-08T08:51:56.809Z,6.27
2023-04-08T08:55:03.329Z,6.06
2023-04-08T08:58:14.626Z,5.80
2023-04-08T09:01:35.719Z,5.56
2023-04-08T09:04:40.282Z,5.45
2023-04-08T09:07:45.545Z,5.31
2023-04-08T09:10:49.614Z,5.28
2023-04-08T09:13:54.028Z,5.35
2023-04-08T09:16:58.634Z,5.51
2023-04-08T09:20:16.082Z,5.30
2023-04-08T09:23:20.679Z,5.19
2023-04-08T09:26:26.113Z,5.24
2023-04-08T09:29:33.842Z,5.00
2023-04-08T09:33:02.102Z,4.84
2023-04-08T09:36:11.614Z,4.82
2023-04-08T09:39:17.084Z,4.56
2023-04-08T09:42:23.349Z,4.55
2023-04-08T09:45:28.883Z,4.64
2023-04-08T09:48:41.648Z,4.20
2023-04-08T09:52:14.786Z,4.38
2023-04-08T09:55:23.117Z,4.20
2023-04-08T09:58:32.747Z,4.19
2023-04-08T10:01:46.520Z,3.98
2023-04-08T10:04:54.924Z,3.51
2023-04-08T10:08:01.486Z,3.70
2023-04-08T10:11:05.494Z,3.64
2023-04-08T10:14:12.281Z,3.57
2023-04-08T10:17:29.446Z,3.60
2023-04-08T10:20:38.407Z,3.63
2023-04-08T10:24:00.853Z,3.56
2023-04-08T10:27:07.328Z,3.36
2023-04-08T10:30:40.767Z,3.43
2023-04-08T10:33:45.417Z,3.40
2023-04-08T10:36:50.728Z,3.14
2023-04-08T10:39:56.239Z,3.19
2023-04-08T10:43:01.436Z,3.13
2023-04-08T10:46:06.398Z,3.00
2023-04-08T10:49:11.058Z,2.94
2023-04-08T10:52:16.598Z,2.72
2023-04-08T10:55:28.237Z,2.66
2023-04-08T10:58:32.637Z,2.67
2023-04-08T11:01:41.844Z,2.02
2023-04-08T11:04:48.549Z,2.43
2023-04-08T11:07:53.922Z,2.25
2023-04-08T11:11:02.537Z,2.25
2023-04-08T11:14:08.040Z,2.03
2023-04-08T11:17:13.454Z,1.97
2023-04-08T11:20:18.429Z,1.60
2023-04-08T11:23:31.453Z,1.65
2023-04-08T11:26:38.617Z,1.59
2023-04-08T11:29:42.883Z,1.27
2023-04-08T11:32:47.478Z,1.08
2023-04-08T11:35:52.862Z,1.21
2023-04-08T11:38:57.673Z,1.36
2023-04-08T11:42:02.155Z,1.15
2023-04-08T11:45:17.836Z,1.15
2023-04-08T11:48:22.249Z,1.08
2023-04-08T11:51:27.094Z,1.04
2023-04-08T11:54:33.500Z,0.98
2023-04-08T11:57:38.506Z,0.89
2023-04-08T12:00:43.648Z,1.21
2023-04-08T12:03:59.582Z,1.11
2023-04-08T12:07:03.784Z,1.08
2023-04-08T12:10:08.594Z,0.76
2023-04-08T12:13:12.525Z,0.60
2023-04-08T12:16:17.031Z,0.89
2023-04-08T12:19:22.449Z,0.85
2023-04-08T12:22:26.421Z,0.36
2023-04-08T12:25:42.976Z,-0.93
2023-04-08T12:28:48.275Z,0.57
2023-04-08T12:31:52.551Z,0.75
2023-04-08T12:34:57.121Z,0.52
2023-04-08T12:38:01.200Z,0.40
2023-04-08T12:41:05.125Z,0.38
2023-04-08T12:44:09.575Z,0.41
2023-04-08T12:47:13.461Z,0.28
2023-04-08T12:50:18.024Z,0.38
2023-04-08T12:53:22.139Z,0.05
2023-04-08T12:56:26.558Z,0.17
2023-04-08T12:59:30.595Z,0.18
2023-04-08T13:02:35.054Z,0.18
2023-04-08T13:05:43.099Z,-0.44
2023-04-08T13:08:48.504Z,-0.28
2023-04-08T13:11:52.869Z,-0.05
2023-04-08T13:14:57.529Z,0.23
2023-04-08T13:18:02.351Z,0.30
2023-04-08T13:21:06.448Z,0.46
2023-04-08T13:24:11.057Z,0.26
2023-04-08T13:27:15.615Z,0.14
2023-04-08T13:30:20.388Z,-0.07
2023-04-08T13:33:24.956Z,-0.44
2023-04-08T13:36:29.464Z,-0.28
2023-04-08T13:39:33.388Z,0.01
2023-04-08T13:42:38.198Z,-0.07
2023-04-08T13:45:42.864Z,0.11
2023-04-08T13:48:47.728Z,0.08
2023-04-08T13:51:52.235Z,-0.02
2023-04-08T13:54:56.658Z,-0.16
2023-04-08T13:58:01.570Z,-0.85
2023-04-08T14:01:07.061Z,-0.86
2023-04-08T14:04:11.546Z,-0.78
2023-04-08T14:07:16.133Z,-0.78
2023-04-08T14:10:20.298Z,-0.73
2023-04-08T14:13:24.626Z,-0.63
2023-04-08T14:16:30.467Z,-0.77
2023-04-08T14:19:34.507Z,-0.88
2023-04-08T14:22:38.911Z,-0.81
2023-04-08T14:25:43.672Z,-0.49
2023-04-08T14:28:48.583Z,-0.67
2023-04-08T14:32:18.063Z,-0.85
2023-04-08T14:35:22.617Z,-1.14
2023-04-08T14:38:27.509Z,-1.13
2023-04-08T14:41:31.507Z,-1.10
2023-04-08T14:44:36.260Z,-0.82
2023-04-08T14:47:40.781Z,-0.84
2023-04-08T14:50:45.438Z,-1.00
2023-04-08T14:53:49.807Z,-0.80
2023-04-08T14:56:54.854Z,-0.58
2023-04-08T15:00:00.237Z,-0.83
2023-04-08T15:03:04.920Z,-1.15
2023-04-08T15:06:09.752Z,-1.51
2023-04-08T15:09:14.285Z,-1.11
2023-04-08T15:12:18.877Z,-1.62
2023-04-08T15:15:23.376Z,-1.63
2023-04-08T15:18:27.912Z,-1.62
2023-04-08T15:21:32.914Z,-1.56
2023-04-08T15:24:37.888Z,-1.58
2023-04-08T15:27:44.035Z,-1.54
2023-04-08T15:30:48.629Z,-1.77
2023-04-08T15:33:53.686Z,-1.60
2023-04-08T15:36:58.460Z,-1.62
2023-04-08T15:40:02.849Z,-1.72
2023-04-08T15:43:10.866Z,-1.80
2023-04-08T15:46:22.415Z,-1.88
2023-04-08T15:49:27.587Z,-1.84
2023-04-08T15:52:33.163Z,-1.96
2023-04-08T15:55:42.813Z,-2.09
2023-04-08T15:58:47.944Z,-1.69
2023-04-08T16:01:52.585Z,-1.78
2023-04-08T16:04:59.291Z,-1.41
2023-04-08T16:08:05.354Z,-1.59
2023-04-08T16:11:10.373Z,-1.39
2023-04-08T16:14:15.128Z,-1.69
2023-04-08T16:17:19.728Z,-1.81
2023-04-08T16:20:24.284Z,-1.79
2023-04-08T16:23:28.810Z,-2.22
2023-04-08T16:26:33.230Z,-2.25
2023-04-08T16:29:37.718Z,-2.31
2023-04-08T16:32:42.886Z,-2.41
2023-04-08T16:35:48.928Z,-2.34
2023-04-08T16:39:01.410Z,-2.35
2023-04-08T16:42:06.237Z,-2.41
2023-04-08T16:45:11.366Z,-2.47
2023-04-08T16:48:15.921Z,-2.25
2023-04-08T16:51:23.115Z,-1.98
2023-04-08T16:54:27.417Z,-2.25
2023-04-08T16:57:31.461Z,-2.38
2023-04-08T17:00:37.405Z,-2.49
2023-04-08T17:03:42.305Z,-2.56
2023-04-08T17:06:46.843Z,-2.53
2023-04-08T17:09:52.828Z,-2.58
2023-04-08T17:12:58.584Z,-2.72
2023-04-08T17:16:02.922Z,-2.69
2023-04-08T17:19:07.403Z,-2.64
2023-04-08T17:22:12.282Z,-2.62
2023-04-08T17:25:17.037Z,-2.67
2023-04-08T17:28:22.319Z,-2.59
2023-04-08T17:31:26.369Z,-2.43
2023-04-08T17:34:32.228Z,-2.55
2023-04-08T17:37:37.178Z,-2.67
2023-04-08T17:40:41.584Z,-2.64
2023-04-08T17:43:46.749Z,-2.75
2023-04-08T17:46:51.357Z,-2.78
2023-04-08T17:49:57.065Z,-2.73
2023-04-08T17:53:01.815Z,-2.83
2023-04-08T17:56:07.009Z,-2.86
2023-04-08T17:59:12.252Z,-2.97
2023-04-08T18:02:16.682Z,-2.99
2023-04-08T18:05:21.372Z,-2.82
2023-04-08T18:08:25.575Z,-2.77
2023-04-08T18:11:29.421Z,-2.81
2023-04-08T18:14:33.778Z,-3.04
2023-04-08T18:17:38.066Z,-2.93
2023-04-08T18:20:42.665Z,-2.93
2023-04-08T18:23:50.331Z,-3.09
2023-04-08T18:27:03.903Z,-3.19
2023-04-08T18:30:09.227Z,-3.36
2023-04-08T18:33:13.480Z,-3.47
2023-04-08T18:36:18.268Z,-3.61
2023-04-08T18:39:22.450Z,-3.58
2023-04-08T18:42:26.756Z,-3.46
2023-04-08T18:45:31.292Z,-3.24
2023-04-08T18:48:35.479Z,-3.20
2023-04-08T18:51:42.200Z,-3.24
2023-04-08T18:54:50.301Z,-3.20
2023-04-08T18:57:55.152Z,-3.20
2023-04-08T19:00:59.722Z,-3.21
2023-04-08T19:04:04.396Z,-2.85
2023-04-08T19:07:08.838Z,-2.70
2023-04-08T19:10:13.529Z,-2.07
2023-04-08T19:13:17.834Z,-1.84
2023-04-08T19:16:22.024Z,-1.93
2023-04-08T19:19:26.827Z,-1.85
2023-04-08T19:22:31.863Z,-1.92
2023-04-08T19:25:37.384Z,-1.72
2023-04-08T19:28:41.916Z,-1.48
2023-04-08T19:31:46.575Z,-1.53
2023-04-08T19:34:51.355Z,-1.62
2023-04-08T19:37:55.748Z,-1.33
2023-04-08T19:40:59.928Z,-1.32
2023-04-08T19:44:04.524Z,-1.81
2023-04-08T19:47:09.121Z,-1.55
2023-04-08T19:50:17.142Z,-1.18
2023-04-08T19:53:21.848Z,-1.29
2023-04-08T19:56:26.657Z,-1.24
2023-04-08T19:59:31.128Z,-0.95
2023-04-08T20:02:35.666Z,-1.12
2023-04-08T20:05:39.942Z,-1.06
2023-04-08T20:08:44.802Z,-1.26
2023-04-08T20:11:49.376Z,-1.05
2023-04-08T20:14:54.035Z,-1.35
2023-04-08T20:17:58.688Z,-1.12
2023-04-08T20:21:02.730Z,-1.27
2023-04-08T20:24:08.075Z,-1.25
2023-04-08T20:27:12.972Z,-1.41
2023-04-08T20:30:17.478Z,-1.40
2023-04-08T20:33:21.540Z,-1.24
2023-04-08T20:36:26.012Z,-1.05
2023-04-08T20:39:31.891Z,-1.05
2023-04-08T20:42:36.430Z,-0.97
2023-04-08T20:45:40.884Z,-0.84
2023-04-08T20:48:45.708Z,-0.92
2023-04-08T20:51:50.203Z,-0.82
2023-04-08T20:54:54.778Z,-0.75
2023-04-08T20:57:58.938Z,-1.01
2023-04-08T21:01:03.099Z,-0.67
2023-04-08T21:04:10.997Z,-0.84
2023-04-08T21:07:15.399Z,-0.63
2023-04-08T21:10:19.876Z,-0.27
2023-04-08T21:13:24.308Z,-0.17
2023-04-08T21:16:29.833Z,0.03
2023-04-08T21:19:34.448Z,0.84
2023-04-08T21:22:39.321Z,1.54
2023-04-08T21:25:43.479Z,1.68
2023-04-08T21:28:47.789Z,2.29
2023-04-08T21:31:52.217Z,3.13
2023-04-08T21:34:56.651Z,3.67
2023-04-08T21:38:01.251Z,4.55
2023-04-08T21:41:05.675Z,4.53
2023-04-08T21:44:10.957Z,5.31
2023-04-08T21:47:15.775Z,5.65
2023-04-08T21:50:19.799Z,5.72
2023-04-08T21:53:24.700Z,6.25
2023-04-08T21:56:29.257Z,6.39
2023-04-08T21:59:33.307Z,7.22
2023-04-08T22:02:41.511Z,7.27
2023-04-08T22:05:45.496Z,7.11
2023-04-08T22:08:51.405Z,7.51
2023-04-08T22:11:55.613Z,7.70
2023-04-08T22:15:00.000Z,7.97
2023-04-08T22:18:05.588Z,8.45
2023-04-08T22:21:10.102Z,7.89
2023-04-08T22:24:14.651Z,7.26
2023-04-08T22:27:19.147Z,7.03
2023-04-08T22:30:23.614Z,6.14
2023-04-08T22:33:28.693Z,5.89
2023-04-08T22:36:32.616Z,4.80
2023-04-08T22:39:36.819Z,4.51
2023-04-08T22:42:41.411Z,3.30
2023-04-08T22:45:45.592Z,3.43
2023-04-08T22:48:50.259Z,3.80
2023-04-08T22:51:54.180Z,3.53
2023-04-08T22:54:58.574Z,3.64
2023-04-08T22:58:03.258Z,3.30
2023-04-08T23:01:18.612Z,2.89
2023-04-08T23:04:22.736Z,2.84
2023-04-08T23:07:27.123Z,3.03
2023-04-08T23:10:31.117Z,2.49
2023-04-08T23:13:36.145Z,2.43
2023-04-08T23:16:40.183Z,2.33
2023-04-08T23:19:44.512Z,2.20
2023-04-08T23:22:48.426Z,2.33
2023-04-08T23:25:55.773Z,2.34
2023-04-08T23:28:59.969Z,2.70
2023-04-08T23:32:03.918Z,2.78
2023-04-08T23:35:09.709Z,2.92
2023-04-08T23:38:13.327Z,2.78
2023-04-08T23:41:17.042Z,2.59
2023-04-08T23:44:21.237Z,3.00
2023-04-08T23:47:25.060Z,2.49
2023-04-08T23:50:28.940Z,2.77
2023-04-08T23:53:32.806Z,2.59
2023-04-08T23:56:37.316Z,2.79
2023-04-08T23:59:52.971Z,2.51
